sensor_id;sensor_type;location;lat;lon;timestamp;temperature;humidity
61591;DHT22;57639;52.410;-1.966;2022-10-13T00:00:57;18.50;61.00
61591;DHT22;57639;52.410;-1.966;2022-10-13T00:04:03;18.60;60.70
61591;DHT22;57639;52.410;-1.966;2022-10-13T00:07:10;18.50;60.80
61591;DHT22;57639;52.410;-1.966;2022-10-13T00:10:16;18.50;61.00
61591;DHT22;57639;52.410;-1.966;2022-10-13T00:13:23;18.50;60.90
61591;DHT22;57639;52.410;-1.966;2022-10-13T00:16:32;18.50;60.90
61591;DHT22;57639;52.410;-1.966;2022-10-13T00:19:39;18.50;60.90
61591;DHT22;57639;52.410;-1.966;2022-10-13T00:22:45;18.50;60.80
61591;DHT22;57639;52.410;-1.966;2022-10-13T00:25:52;18.50;60.70
61591;DHT22;57639;52.410;-1.966;2022-10-13T00:28:57;18.50;60.60
61591;DHT22;57639;52.410;-1.966;2022-10-13T00:32:08;18.50;60.70
61591;DHT22;57639;52.410;-1.966;2022-10-13T00:35:14;18.50;60.70
61591;DHT22;57639;52.410;-1.966;2022-10-13T00:38:21;18.50;60.60
61591;DHT22;57639;52.410;-1.966;2022-10-13T00:41:27;18.40;60.60
61591;DHT22;57639;52.410;-1.966;2022-10-13T00:45:04;18.50;60.60
61591;DHT22;57639;52.410;-1.966;2022-10-13T00:48:13;18.40;60.60
61591;DHT22;57639;52.410;-1.966;2022-10-13T00:51:24;18.40;60.70
61591;DHT22;57639;52.410;-1.966;2022-10-13T00:54:30;18.40;60.70
61591;DHT22;57639;52.410;-1.966;2022-10-13T00:57:39;18.40;60.70
61591;DHT22;57639;52.410;-1.966;2022-10-13T01:00:48;18.40;60.70
61591;DHT22;57639;52.410;-1.966;2022-10-13T01:03:59;18.40;60.70
61591;DHT22;57639;52.410;-1.966;2022-10-13T01:07:05;18.40;60.60
61591;DHT22;57639;52.410;-1.966;2022-10-13T01:10:13;18.40;60.70
61591;DHT22;57639;52.410;-1.966;2022-10-13T01:13:32;18.40;60.70
61591;DHT22;57639;52.410;-1.966;2022-10-13T01:16:44;18.40;60.70
61591;DHT22;57639;52.410;-1.966;2022-10-13T01:20:31;18.40;60.70
61591;DHT22;57639;52.410;-1.966;2022-10-13T01:24:02;18.40;60.70
61591;DHT22;57639;52.410;-1.966;2022-10-13T01:27:40;18.30;60.60
61591;DHT22;57639;52.410;-1.966;2022-10-13T01:30:56;18.30;60.60
61591;DHT22;57639;52.410;-1.966;2022-10-13T01:34:07;18.30;60.70
61591;DHT22;57639;52.410;-1.966;2022-10-13T01:37:21;18.30;60.70
61591;DHT22;57639;52.410;-1.966;2022-10-13T01:40:37;18.30;60.70
61591;DHT22;57639;52.410;-1.966;2022-10-13T01:43:49;18.30;60.70
61591;DHT22;57639;52.410;-1.966;2022-10-13T01:47:00;18.30;60.80
61591;DHT22;57639;52.410;-1.966;2022-10-13T01:50:09;18.30;60.80
61591;DHT22;57639;52.410;-1.966;2022-10-13T01:53:15;18.30;60.80
61591;DHT22;57639;52.410;-1.966;2022-10-13T01:56:24;18.40;60.80
61591;DHT22;57639;52.410;-1.966;2022-10-13T01:59:32;18.30;60.70
61591;DHT22;57639;52.410;-1.966;2022-10-13T02:02:51;18.30;60.80
61591;DHT22;57639;52.410;-1.966;2022-10-13T02:06:04;18.30;60.80
61591;DHT22;57639;52.410;-1.966;2022-10-13T02:09:20;18.30;60.70
61591;DHT22;57639;52.410;-1.966;2022-10-13T02:12:31;18.30;60.70
61591;DHT22;57639;52.410;-1.966;2022-10-13T02:15:42;18.30;60.80
61591;DHT22;57639;52.410;-1.966;2022-10-13T02:18:52;18.30;60.80
61591;DHT22;57639;52.410;-1.966;2022-10-13T02:22:02;18.30;60.70
61591;DHT22;57639;52.410;-1.966;2022-10-13T02:25:08;18.30;60.70
61591;DHT22;57639;52.410;-1.966;2022-10-13T02:28:17;18.30;60.70
61591;DHT22;57639;52.410;-1.966;2022-10-13T02:31:23;18.30;60.80
61591;DHT22;57639;52.410;-1.966;2022-10-13T02:34:33;18.30;60.70
61591;DHT22;57639;52.410;-1.966;2022-10-13T02:37:39;18.30;60.70
61591;DHT22;57639;52.410;-1.966;2022-10-13T02:40:46;18.30;60.70
61591;DHT22;57639;52.410;-1.966;2022-10-13T02:43:52;18.20;60.70
61591;DHT22;57639;52.410;-1.966;2022-10-13T02:47:00;18.20;60.70
61591;DHT22;57639;52.410;-1.966;2022-10-13T02:50:09;18.20;60.80
61591;DHT22;57639;52.410;-1.966;2022-10-13T02:53:16;18.20;60.70
61591;DHT22;57639;52.410;-1.966;2022-10-13T02:56:22;18.20;60.80
61591;DHT22;57639;52.410;-1.966;2022-10-13T02:59:32;18.20;60.70
61591;DHT22;57639;52.410;-1.966;2022-10-13T03:02:38;18.20;60.80
61591;DHT22;57639;52.410;-1.966;2022-10-13T03:05:48;18.20;60.90
61591;DHT22;57639;52.410;-1.966;2022-10-13T03:08:53;18.20;60.80
61591;DHT22;57639;52.410;-1.966;2022-10-13T03:12:01;18.10;60.80
61591;DHT22;57639;52.410;-1.966;2022-10-13T03:15:07;18.10;60.80
61591;DHT22;57639;52.410;-1.966;2022-10-13T03:18:15;18.20;60.80
61591;DHT22;57639;52.410;-1.966;2022-10-13T03:21:23;18.10;60.80
61591;DHT22;57639;52.410;-1.966;2022-10-13T03:24:30;18.10;60.80
61591;DHT22;57639;52.410;-1.966;2022-10-13T03:27:35;18.10;60.80
61591;DHT22;57639;52.410;-1.966;2022-10-13T03:30:43;18.10;60.80
61591;DHT22;57639;52.410;-1.966;2022-10-13T03:33:49;18.10;60.80
61591;DHT22;57639;52.410;-1.966;2022-10-13T03:36:59;18.10;60.80
61591;DHT22;57639;52.410;-1.966;2022-10-13T03:40:06;18.10;60.80
61591;DHT22;57639;52.410;-1.966;2022-10-13T03:43:13;18.10;60.80
61591;DHT22;57639;52.410;-1.966;2022-10-13T03:46:19;18.10;60.80
61591;DHT22;57639;52.410;-1.966;2022-10-13T03:49:28;18.10;60.80
61591;DHT22;57639;52.410;-1.966;2022-10-13T03:52:36;18.10;60.80
61591;DHT22;57639;52.410;-1.966;2022-10-13T03:55:50;18.10;60.80
61591;DHT22;57639;52.410;-1.966;2022-10-13T03:58:58;18.10;60.70
61591;DHT22;57639;52.410;-1.966;2022-10-13T04:02:08;18.10;60.70
61591;DHT22;57639;52.410;-1.966;2022-10-13T04:05:16;18.10;60.70
61591;DHT22;57639;52.410;-1.966;2022-10-13T04:08:27;18.10;60.70
61591;DHT22;57639;52.410;-1.966;2022-10-13T04:11:32;18.10;60.70
61591;DHT22;57639;52.410;-1.966;2022-10-13T04:14:40;18.10;60.70
61591;DHT22;57639;52.410;-1.966;2022-10-13T04:17:45;18.10;60.70
61591;DHT22;57639;52.410;-1.966;2022-10-13T04:20:52;18.10;60.70
61591;DHT22;57639;52.410;-1.966;2022-10-13T04:24:02;18.10;60.60
61591;DHT22;57639;52.410;-1.966;2022-10-13T04:27:09;18.10;60.70
61591;DHT22;57639;52.410;-1.966;2022-10-13T04:30:17;18.10;60.70
61591;DHT22;57639;52.410;-1.966;2022-10-13T04:33:25;18.10;60.60
61591;DHT22;57639;52.410;-1.966;2022-10-13T04:36:30;18.10;60.60
61591;DHT22;57639;52.410;-1.966;2022-10-13T04:39:40;18.10;60.60
61591;DHT22;57639;52.410;-1.966;2022-10-13T04:42:46;18.10;60.70
61591;DHT22;57639;52.410;-1.966;2022-10-13T04:45:59;18.10;60.60
61591;DHT22;57639;52.410;-1.966;2022-10-13T04:49:05;18.10;60.60
61591;DHT22;57639;52.410;-1.966;2022-10-13T04:52:12;18.10;60.70
61591;DHT22;57639;52.410;-1.966;2022-10-13T04:55:21;18.10;60.70
61591;DHT22;57639;52.410;-1.966;2022-10-13T04:58:29;18.10;60.70
61591;DHT22;57639;52.410;-1.966;2022-10-13T05:01:34;18.10;60.70
61591;DHT22;57639;52.410;-1.966;2022-10-13T05:04:42;18.10;60.70
61591;DHT22;57639;52.410;-1.966;2022-10-13T05:07:47;18.00;60.60
61591;DHT22;57639;52.410;-1.966;2022-10-13T05:10:58;18.10;60.70
61591;DHT22;57639;52.410;-1.966;2022-10-13T05:14:04;18.10;60.60
61591;DHT22;57639;52.410;-1.966;2022-10-13T05:17:11;18.10;60.60
61591;DHT22;57639;52.410;-1.966;2022-10-13T05:20:18;18.10;60.60
61591;DHT22;57639;52.410;-1.966;2022-10-13T05:23:25;18.10;60.60
61591;DHT22;57639;52.410;-1.966;2022-10-13T05:26:35;18.10;60.70
61591;DHT22;57639;52.410;-1.966;2022-10-13T05:29:42;18.00;60.70
61591;DHT22;57639;52.410;-1.966;2022-10-13T05:32:48;18.00;60.70
61591;DHT22;57639;52.410;-1.966;2022-10-13T05:36:02;18.10;60.70
61591;DHT22;57639;52.410;-1.966;2022-10-13T05:39:09;18.10;60.70
61591;DHT22;57639;52.410;-1.966;2022-10-13T05:42:19;18.10;60.60
61591;DHT22;57639;52.410;-1.966;2022-10-13T05:45:27;18.00;60.60
61591;DHT22;57639;52.410;-1.966;2022-10-13T05:48:36;18.10;60.60
61591;DHT22;57639;52.410;-1.966;2022-10-13T05:51:46;18.00;60.60
61591;DHT22;57639;52.410;-1.966;2022-10-13T05:54:55;18.10;60.60
61591;DHT22;57639;52.410;-1.966;2022-10-13T05:58:05;18.00;60.60
61591;DHT22;57639;52.410;-1.966;2022-10-13T06:01:13;18.00;60.60
61591;DHT22;57639;52.410;-1.966;2022-10-13T06:04:30;18.00;60.60
61591;DHT22;57639;52.410;-1.966;2022-10-13T06:07:37;18.00;60.50
61591;DHT22;57639;52.410;-1.966;2022-10-13T06:10:44;18.00;60.60
61591;DHT22;57639;52.410;-1.966;2022-10-13T06:13:53;18.00;60.50
61591;DHT22;57639;52.410;-1.966;2022-10-13T06:17:00;18.00;60.60
61591;DHT22;57639;52.410;-1.966;2022-10-13T06:20:07;18.00;60.60
61591;DHT22;57639;52.410;-1.966;2022-10-13T06:26:56;18.00;60.60
61591;DHT22;57639;52.410;-1.966;2022-10-13T06:30:08;18.00;60.60
61591;DHT22;57639;52.410;-1.966;2022-10-13T06:33:17;18.00;60.70
61591;DHT22;57639;52.410;-1.966;2022-10-13T06:36:31;18.00;60.80
61591;DHT22;57639;52.410;-1.966;2022-10-13T06:39:39;18.00;60.90
61591;DHT22;57639;52.410;-1.966;2022-10-13T06:42:49;18.00;60.90
61591;DHT22;57639;52.410;-1.966;2022-10-13T06:46:00;18.00;61.00
61591;DHT22;57639;52.410;-1.966;2022-10-13T06:49:11;18.00;61.10
61591;DHT22;57639;52.410;-1.966;2022-10-13T06:52:17;18.10;61.00
61591;DHT22;57639;52.410;-1.966;2022-10-13T06:55:25;18.10;60.90
61591;DHT22;57639;52.410;-1.966;2022-10-13T06:58:31;18.10;61.70
61591;DHT22;57639;52.410;-1.966;2022-10-13T07:01:41;18.10;62.00
61591;DHT22;57639;52.410;-1.966;2022-10-13T07:04:47;18.10;62.00
61591;DHT22;57639;52.410;-1.966;2022-10-13T07:07:55;18.10;62.20
61591;DHT22;57639;52.410;-1.966;2022-10-13T07:11:05;18.10;62.10
61591;DHT22;57639;52.410;-1.966;2022-10-13T07:14:19;18.10;62.10
61591;DHT22;57639;52.410;-1.966;2022-10-13T07:17:29;18.10;62.10
61591;DHT22;57639;52.410;-1.966;2022-10-13T07:20:35;18.10;62.30
61591;DHT22;57639;52.410;-1.966;2022-10-13T07:23:42;18.10;62.40
61591;DHT22;57639;52.410;-1.966;2022-10-13T07:26:48;18.10;62.60
61591;DHT22;57639;52.410;-1.966;2022-10-13T07:29:56;18.10;62.50
61591;DHT22;57639;52.410;-1.966;2022-10-13T07:33:04;18.00;62.50
61591;DHT22;57639;52.410;-1.966;2022-10-13T07:36:17;18.00;62.50
61591;DHT22;57639;52.410;-1.966;2022-10-13T07:39:25;18.00;62.40
61591;DHT22;57639;52.410;-1.966;2022-10-13T07:42:47;18.00;62.30
61591;DHT22;57639;52.410;-1.966;2022-10-13T07:46:00;18.00;62.30
61591;DHT22;57639;52.410;-1.966;2022-10-13T07:49:15;18.00;62.20
61591;DHT22;57639;52.410;-1.966;2022-10-13T07:52:26;18.00;62.20
61591;DHT22;57639;52.410;-1.966;2022-10-13T07:55:39;18.00;62.10
61591;DHT22;57639;52.410;-1.966;2022-10-13T07:58:48;18.00;62.10
61591;DHT22;57639;52.410;-1.966;2022-10-13T08:02:03;17.90;62.00
61591;DHT22;57639;52.410;-1.966;2022-10-13T08:05:13;18.00;62.00
61591;DHT22;57639;52.410;-1.966;2022-10-13T08:08:21;17.90;61.90
61591;DHT22;57639;52.410;-1.966;2022-10-13T08:11:31;17.90;62.00
61591;DHT22;57639;52.410;-1.966;2022-10-13T08:14:40;17.90;62.00
61591;DHT22;57639;52.410;-1.966;2022-10-13T08:17:46;17.90;61.90
61591;DHT22;57639;52.410;-1.966;2022-10-13T08:20:59;17.90;61.80
61591;DHT22;57639;52.410;-1.966;2022-10-13T08:24:30;18.00;61.80
61591;DHT22;57639;52.410;-1.966;2022-10-13T08:27:45;18.00;61.70
61591;DHT22;57639;52.410;-1.966;2022-10-13T08:31:01;18.00;61.70
61591;DHT22;57639;52.410;-1.966;2022-10-13T08:34:10;18.00;61.50
61591;DHT22;57639;52.410;-1.966;2022-10-13T08:37:22;17.90;61.40
61591;DHT22;57639;52.410;-1.966;2022-10-13T08:40:30;18.00;61.40
61591;DHT22;57639;52.410;-1.966;2022-10-13T08:43:36;18.00;61.40
61591;DHT22;57639;52.410;-1.966;2022-10-13T08:47:08;18.00;61.50
61591;DHT22;57639;52.410;-1.966;2022-10-13T08:50:19;18.00;61.60
61591;DHT22;57639;52.410;-1.966;2022-10-13T08:53:32;18.00;61.50
61591;DHT22;57639;52.410;-1.966;2022-10-13T08:56:38;18.00;61.40
61591;DHT22;57639;52.410;-1.966;2022-10-13T08:59:46;18.00;61.40
61591;DHT22;57639;52.410;-1.966;2022-10-13T09:02:52;18.00;61.40
61591;DHT22;57639;52.410;-1.966;2022-10-13T09:06:08;18.10;61.40
61591;DHT22;57639;52.410;-1.966;2022-10-13T09:09:18;18.00;61.40
61591;DHT22;57639;52.410;-1.966;2022-10-13T09:12:26;18.10;61.40
61591;DHT22;57639;52.410;-1.966;2022-10-13T09:15:42;18.10;61.40
61591;DHT22;57639;52.410;-1.966;2022-10-13T09:18:50;18.10;61.50
61591;DHT22;57639;52.410;-1.966;2022-10-13T09:21:57;18.10;61.50
61591;DHT22;57639;52.410;-1.966;2022-10-13T09:25:17;18.10;61.60
61591;DHT22;57639;52.410;-1.966;2022-10-13T09:28:30;18.10;61.70
61591;DHT22;57639;52.410;-1.966;2022-10-13T09:31:42;18.10;61.80
61591;DHT22;57639;52.410;-1.966;2022-10-13T09:34:49;18.10;61.90
61591;DHT22;57639;52.410;-1.966;2022-10-13T09:38:02;18.10;61.80
61591;DHT22;57639;52.410;-1.966;2022-10-13T09:41:24;18.10;62.10
61591;DHT22;57639;52.410;-1.966;2022-10-13T09:44:32;18.10;62.10
61591;DHT22;57639;52.410;-1.966;2022-10-13T09:47:38;18.10;62.20
61591;DHT22;57639;52.410;-1.966;2022-10-13T09:50:48;18.10;62.30
61591;DHT22;57639;52.410;-1.966;2022-10-13T09:53:54;18.10;62.30
61591;DHT22;57639;52.410;-1.966;2022-10-13T09:57:10;18.20;62.20
61591;DHT22;57639;52.410;-1.966;2022-10-13T10:00:18;18.20;62.40
61591;DHT22;57639;52.410;-1.966;2022-10-13T10:03:30;18.10;62.40
61591;DHT22;57639;52.410;-1.966;2022-10-13T10:06:39;18.20;62.50
61591;DHT22;57639;52.410;-1.966;2022-10-13T10:09:48;18.20;62.50
61591;DHT22;57639;52.410;-1.966;2022-10-13T10:12:58;18.20;62.70
61591;DHT22;57639;52.410;-1.966;2022-10-13T10:16:12;18.20;62.80
61591;DHT22;57639;52.410;-1.966;2022-10-13T10:19:23;18.30;62.70
61591;DHT22;57639;52.410;-1.966;2022-10-13T10:22:41;18.30;62.70
61591;DHT22;57639;52.410;-1.966;2022-10-13T10:25:50;18.30;62.70
61591;DHT22;57639;52.410;-1.966;2022-10-13T10:29:15;18.30;62.70
61591;DHT22;57639;52.410;-1.966;2022-10-13T10:32:27;18.30;62.50
61591;DHT22;57639;52.410;-1.966;2022-10-13T10:35:44;18.30;62.50
61591;DHT22;57639;52.410;-1.966;2022-10-13T10:38:56;18.30;62.60
61591;DHT22;57639;52.410;-1.966;2022-10-13T10:42:21;18.30;62.70
61591;DHT22;57639;52.410;-1.966;2022-10-13T10:45:33;18.30;62.50
61591;DHT22;57639;52.410;-1.966;2022-10-13T10:48:44;18.30;62.70
61591;DHT22;57639;52.410;-1.966;2022-10-13T10:51:51;18.30;62.80
61591;DHT22;57639;52.410;-1.966;2022-10-13T10:55:07;18.30;62.70
61591;DHT22;57639;52.410;-1.966;2022-10-13T10:58:24;18.30;62.60
61591;DHT22;57639;52.410;-1.966;2022-10-13T11:01:42;18.40;62.60
61591;DHT22;57639;52.410;-1.966;2022-10-13T11:04:54;18.40;62.60
61591;DHT22;57639;52.410;-1.966;2022-10-13T11:08:25;18.50;62.70
61591;DHT22;57639;52.410;-1.966;2022-10-13T11:11:34;18.60;62.80
61591;DHT22;57639;52.410;-1.966;2022-10-13T11:14:42;18.60;62.90
61591;DHT22;57639;52.410;-1.966;2022-10-13T11:17:50;18.70;62.90
61591;DHT22;57639;52.410;-1.966;2022-10-13T11:20:58;18.70;62.90
61591;DHT22;57639;52.410;-1.966;2022-10-13T11:27:52;18.90;62.60
61591;DHT22;57639;52.410;-1.966;2022-10-13T11:31:27;18.90;62.60
61591;DHT22;57639;52.410;-1.966;2022-10-13T11:34:56;19.00;62.40
61591;DHT22;57639;52.410;-1.966;2022-10-13T11:38:13;19.00;62.30
61591;DHT22;57639;52.410;-1.966;2022-10-13T11:41:28;19.10;62.20
61591;DHT22;57639;52.410;-1.966;2022-10-13T11:44:45;19.10;62.10
61591;DHT22;57639;52.410;-1.966;2022-10-13T11:51:42;19.10;62.00
61591;DHT22;57639;52.410;-1.966;2022-10-13T11:54:56;19.20;61.90
61591;DHT22;57639;52.410;-1.966;2022-10-13T11:58:12;19.20;62.00
61591;DHT22;57639;52.410;-1.966;2022-10-13T12:01:21;19.20;61.90
61591;DHT22;57639;52.410;-1.966;2022-10-13T12:04:27;19.20;62.00
61591;DHT22;57639;52.410;-1.966;2022-10-13T12:07:40;19.20;62.00
61591;DHT22;57639;52.410;-1.966;2022-10-13T12:10:45;19.20;62.00
61591;DHT22;57639;52.410;-1.966;2022-10-13T12:14:02;19.30;62.10
61591;DHT22;57639;52.410;-1.966;2022-10-13T12:17:19;19.30;62.20
61591;DHT22;57639;52.410;-1.966;2022-10-13T12:20:29;19.30;62.20
61591;DHT22;57639;52.410;-1.966;2022-10-13T12:23:38;19.30;62.20
61591;DHT22;57639;52.410;-1.966;2022-10-13T12:26:45;19.20;62.20
61591;DHT22;57639;52.410;-1.966;2022-10-13T12:29:51;19.20;62.30
61591;DHT22;57639;52.410;-1.966;2022-10-13T12:33:19;19.20;62.20
61591;DHT22;57639;52.410;-1.966;2022-10-13T12:36:29;19.30;62.30
61591;DHT22;57639;52.410;-1.966;2022-10-13T12:39:42;19.20;62.20
61591;DHT22;57639;52.410;-1.966;2022-10-13T12:42:49;19.20;62.30
61591;DHT22;57639;52.410;-1.966;2022-10-13T12:45:56;19.20;62.20
61591;DHT22;57639;52.410;-1.966;2022-10-13T12:49:05;19.20;62.30
61591;DHT22;57639;52.410;-1.966;2022-10-13T12:52:14;19.20;62.20
61591;DHT22;57639;52.410;-1.966;2022-10-13T12:55:27;19.20;62.30
61591;DHT22;57639;52.410;-1.966;2022-10-13T12:58:35;19.20;62.30
61591;DHT22;57639;52.410;-1.966;2022-10-13T13:01:41;19.20;62.30
61591;DHT22;57639;52.410;-1.966;2022-10-13T13:04:49;19.20;62.20
61591;DHT22;57639;52.410;-1.966;2022-10-13T13:07:55;19.20;62.30
61591;DHT22;57639;52.410;-1.966;2022-10-13T13:11:14;19.20;62.20
61591;DHT22;57639;52.410;-1.966;2022-10-13T13:14:35;19.10;62.30
61591;DHT22;57639;52.410;-1.966;2022-10-13T13:17:44;19.10;62.30
61591;DHT22;57639;52.410;-1.966;2022-10-13T13:21:06;19.10;62.40
61591;DHT22;57639;52.410;-1.966;2022-10-13T13:24:14;19.20;62.40
61591;DHT22;57639;52.410;-1.966;2022-10-13T13:27:42;19.10;62.40
61591;DHT22;57639;52.410;-1.966;2022-10-13T13:30:52;19.10;62.50
61591;DHT22;57639;52.410;-1.966;2022-10-13T13:33:58;19.10;62.50
61591;DHT22;57639;52.410;-1.966;2022-10-13T13:37:11;19.10;62.50
61591;DHT22;57639;52.410;-1.966;2022-10-13T13:40:18;19.10;62.50
61591;DHT22;57639;52.410;-1.966;2022-10-13T13:43:29;19.20;62.50
61591;DHT22;57639;52.410;-1.966;2022-10-13T13:46:34;19.10;62.50
61591;DHT22;57639;52.410;-1.966;2022-10-13T13:49:42;19.20;62.60
61591;DHT22;57639;52.410;-1.966;2022-10-13T13:52:48;19.10;62.60
61591;DHT22;57639;52.410;-1.966;2022-10-13T13:55:55;19.10;62.60
61591;DHT22;57639;52.410;-1.966;2022-10-13T13:59:04;19.20;62.60
61591;DHT22;57639;52.410;-1.966;2022-10-13T14:02:13;19.20;62.60
61591;DHT22;57639;52.410;-1.966;2022-10-13T14:05:18;19.10;62.70
61591;DHT22;57639;52.410;-1.966;2022-10-13T14:08:29;19.10;62.70
61591;DHT22;57639;52.410;-1.966;2022-10-13T14:11:35;19.10;62.70
61591;DHT22;57639;52.410;-1.966;2022-10-13T14:14:45;19.10;62.70
61591;DHT22;57639;52.410;-1.966;2022-10-13T14:17:51;19.10;62.70
61591;DHT22;57639;52.410;-1.966;2022-10-13T14:21:04;19.10;62.80
61591;DHT22;57639;52.410;-1.966;2022-10-13T14:24:10;19.10;62.90
61591;DHT22;57639;52.410;-1.966;2022-10-13T14:27:17;19.10;62.80
61591;DHT22;57639;52.410;-1.966;2022-10-13T14:30:26;19.10;62.90
61591;DHT22;57639;52.410;-1.966;2022-10-13T14:33:34;19.10;62.80
61591;DHT22;57639;52.410;-1.966;2022-10-13T14:36:40;19.10;62.90
61591;DHT22;57639;52.410;-1.966;2022-10-13T14:39:47;19.10;62.90
61591;DHT22;57639;52.410;-1.966;2022-10-13T14:42:57;19.10;63.00
61591;DHT22;57639;52.410;-1.966;2022-10-13T14:46:10;19.00;62.90
61591;DHT22;57639;52.410;-1.966;2022-10-13T14:49:15;19.00;62.90
61591;DHT22;57639;52.410;-1.966;2022-10-13T14:52:23;19.00;62.80
61591;DHT22;57639;52.410;-1.966;2022-10-13T14:55:30;19.00;62.80
61591;DHT22;57639;52.410;-1.966;2022-10-13T14:58:37;19.00;62.80
61591;DHT22;57639;52.410;-1.966;2022-10-13T15:01:47;19.00;62.70
61591;DHT22;57639;52.410;-1.966;2022-10-13T15:04:58;19.00;62.80
61591;DHT22;57639;52.410;-1.966;2022-10-13T15:08:06;19.00;62.70
61591;DHT22;57639;52.410;-1.966;2022-10-13T15:11:14;19.00;62.70
61591;DHT22;57639;52.410;-1.966;2022-10-13T15:14:21;19.00;62.60
61591;DHT22;57639;52.410;-1.966;2022-10-13T15:17:32;19.00;62.50
61591;DHT22;57639;52.410;-1.966;2022-10-13T15:20:38;19.00;62.60
61591;DHT22;57639;52.410;-1.966;2022-10-13T15:23:45;19.00;62.60
61591;DHT22;57639;52.410;-1.966;2022-10-13T15:26:52;19.00;62.70
61591;DHT22;57639;52.410;-1.966;2022-10-13T15:30:00;19.10;62.60
61591;DHT22;57639;52.410;-1.966;2022-10-13T15:33:08;19.10;62.60
61591;DHT22;57639;52.410;-1.966;2022-10-13T15:36:15;19.10;62.60
61591;DHT22;57639;52.410;-1.966;2022-10-13T15:39:21;19.10;62.60
61591;DHT22;57639;52.410;-1.966;2022-10-13T15:42:29;19.10;62.60
61591;DHT22;57639;52.410;-1.966;2022-10-13T15:45:35;19.10;62.60
61591;DHT22;57639;52.410;-1.966;2022-10-13T15:48:46;19.20;62.60
61591;DHT22;57639;52.410;-1.966;2022-10-13T15:51:52;19.20;62.60
61591;DHT22;57639;52.410;-1.966;2022-10-13T15:55:00;19.30;62.50
61591;DHT22;57639;52.410;-1.966;2022-10-13T15:58:05;19.40;62.40
61591;DHT22;57639;52.410;-1.966;2022-10-13T16:01:17;19.40;62.30
61591;DHT22;57639;52.410;-1.966;2022-10-13T16:04:27;19.50;62.20
61591;DHT22;57639;52.410;-1.966;2022-10-13T16:07:40;19.50;62.10
61591;DHT22;57639;52.410;-1.966;2022-10-13T16:10:46;19.50;62.10
61591;DHT22;57639;52.410;-1.966;2022-10-13T16:13:56;19.60;62.00
61591;DHT22;57639;52.410;-1.966;2022-10-13T16:17:06;19.50;62.00
61591;DHT22;57639;52.410;-1.966;2022-10-13T16:20:21;19.50;62.00
61591;DHT22;57639;52.410;-1.966;2022-10-13T16:23:27;19.50;62.00
61591;DHT22;57639;52.410;-1.966;2022-10-13T16:26:35;19.50;61.90
61591;DHT22;57639;52.410;-1.966;2022-10-13T16:29:41;19.50;61.80
61591;DHT22;57639;52.410;-1.966;2022-10-13T16:32:48;19.60;62.00
61591;DHT22;57639;52.410;-1.966;2022-10-13T16:36:04;19.50;62.00
61591;DHT22;57639;52.410;-1.966;2022-10-13T16:39:12;19.50;62.00
61591;DHT22;57639;52.410;-1.966;2022-10-13T16:42:18;19.40;62.10
61591;DHT22;57639;52.410;-1.966;2022-10-13T16:45:25;19.50;62.10
61591;DHT22;57639;52.410;-1.966;2022-10-13T16:48:53;19.50;62.00
61591;DHT22;57639;52.410;-1.966;2022-10-13T16:52:03;19.40;62.10
61591;DHT22;57639;52.410;-1.966;2022-10-13T16:55:10;19.40;62.10
61591;DHT22;57639;52.410;-1.966;2022-10-13T16:58:18;19.40;62.00
61591;DHT22;57639;52.410;-1.966;2022-10-13T17:01:24;19.40;62.00
61591;DHT22;57639;52.410;-1.966;2022-10-13T17:04:32;19.40;62.10
61591;DHT22;57639;52.410;-1.966;2022-10-13T17:07:41;19.30;62.40
61591;DHT22;57639;52.410;-1.966;2022-10-13T17:10:48;19.30;62.80
61591;DHT22;57639;52.410;-1.966;2022-10-13T17:13:59;19.30;62.70
61591;DHT22;57639;52.410;-1.966;2022-10-13T17:17:08;19.30;62.50
61591;DHT22;57639;52.410;-1.966;2022-10-13T17:20:15;19.30;62.80
61591;DHT22;57639;52.410;-1.966;2022-10-13T17:23:26;19.30;62.70
61591;DHT22;57639;52.410;-1.966;2022-10-13T17:26:31;19.30;62.80
61591;DHT22;57639;52.410;-1.966;2022-10-13T17:29:39;19.30;62.90
61591;DHT22;57639;52.410;-1.966;2022-10-13T17:32:48;19.30;63.20
61591;DHT22;57639;52.410;-1.966;2022-10-13T17:35:58;19.30;63.20
61591;DHT22;57639;52.410;-1.966;2022-10-13T17:39:08;19.30;63.40
61591;DHT22;57639;52.410;-1.966;2022-10-13T17:42:17;19.30;63.70
61591;DHT22;57639;52.410;-1.966;2022-10-13T17:45:24;19.30;63.80
61591;DHT22;57639;52.410;-1.966;2022-10-13T17:48:32;19.20;63.70
61591;DHT22;57639;52.410;-1.966;2022-10-13T17:51:38;19.20;63.60
61591;DHT22;57639;52.410;-1.966;2022-10-13T17:54:49;19.30;63.60
61591;DHT22;57639;52.410;-1.966;2022-10-13T17:57:54;19.30;63.60
61591;DHT22;57639;52.410;-1.966;2022-10-13T18:01:05;19.30;63.70
61591;DHT22;57639;52.410;-1.966;2022-10-13T18:04:16;19.30;63.60
61591;DHT22;57639;52.410;-1.966;2022-10-13T18:07:25;19.20;63.70
61591;DHT22;57639;52.410;-1.966;2022-10-13T18:10:34;19.20;63.60
61591;DHT22;57639;52.410;-1.966;2022-10-13T18:14:02;19.20;63.60
61591;DHT22;57639;52.410;-1.966;2022-10-13T18:17:10;19.20;63.40
61591;DHT22;57639;52.410;-1.966;2022-10-13T18:20:18;19.20;63.30
61591;DHT22;57639;52.410;-1.966;2022-10-13T18:23:23;19.20;63.20
61591;DHT22;57639;52.410;-1.966;2022-10-13T18:26:33;19.20;63.00
61591;DHT22;57639;52.410;-1.966;2022-10-13T18:29:40;19.20;62.90
61591;DHT22;57639;52.410;-1.966;2022-10-13T18:32:47;19.10;62.90
61591;DHT22;57639;52.410;-1.966;2022-10-13T18:35:53;19.20;62.80
61591;DHT22;57639;52.410;-1.966;2022-10-13T18:39:04;19.10;62.80
61591;DHT22;57639;52.410;-1.966;2022-10-13T18:42:14;19.10;62.80
61591;DHT22;57639;52.410;-1.966;2022-10-13T18:45:24;19.10;62.80
61591;DHT22;57639;52.410;-1.966;2022-10-13T18:48:30;19.10;62.70
61591;DHT22;57639;52.410;-1.966;2022-10-13T18:51:40;19.10;62.80
61591;DHT22;57639;52.410;-1.966;2022-10-13T18:54:47;19.10;62.70
61591;DHT22;57639;52.410;-1.966;2022-10-13T18:57:58;19.10;62.70
61591;DHT22;57639;52.410;-1.966;2022-10-13T19:01:06;19.10;62.80
61591;DHT22;57639;52.410;-1.966;2022-10-13T19:04:14;19.10;62.70
61591;DHT22;57639;52.410;-1.966;2022-10-13T19:07:20;19.10;62.70
61591;DHT22;57639;52.410;-1.966;2022-10-13T19:10:28;19.00;62.60
61591;DHT22;57639;52.410;-1.966;2022-10-13T19:13:36;19.10;62.60
61591;DHT22;57639;52.410;-1.966;2022-10-13T19:16:46;19.00;62.60
61591;DHT22;57639;52.410;-1.966;2022-10-13T19:19:52;19.00;62.60
61591;DHT22;57639;52.410;-1.966;2022-10-13T19:23:13;19.00;62.50
61591;DHT22;57639;52.410;-1.966;2022-10-13T19:26:20;19.00;62.50
61591;DHT22;57639;52.410;-1.966;2022-10-13T19:29:31;19.00;62.50
61591;DHT22;57639;52.410;-1.966;2022-10-13T19:32:38;18.90;62.60
61591;DHT22;57639;52.410;-1.966;2022-10-13T19:35:47;18.90;62.60
61591;DHT22;57639;52.410;-1.966;2022-10-13T19:38:53;18.90;62.50
61591;DHT22;57639;52.410;-1.966;2022-10-13T19:42:01;18.90;62.50
61591;DHT22;57639;52.410;-1.966;2022-10-13T19:45:12;18.90;62.50
61591;DHT22;57639;52.410;-1.966;2022-10-13T19:48:20;18.90;62.50
61591;DHT22;57639;52.410;-1.966;2022-10-13T19:51:26;18.90;62.40